createdAt,value
2019-04-19T00:00:42.579Z,13.57
2019-04-19T00:03:19.137Z,13.55
2019-04-19T00:05:48.115Z,13.54
2019-04-19T00:08:34.688Z,13.52
2019-04-19T00:10:58.048Z,13.46
2019-04-19T00:13:21.954Z,13.43
2019-04-19T00:15:51.930Z,13.37
2019-04-19T00:18:24.486Z,13.33
2019-04-19T00:21:12.479Z,13.28
2019-04-19T00:23:34.084Z,13.27
2019-04-19T00:25:57.775Z,13.25
2019-04-19T00:28:37.496Z,13.20
2019-04-19T00:31:15.667Z,13.17
2019-04-19T00:33:37.503Z,13.06
2019-04-19T00:36:02.791Z,13.06
2019-04-19T00:38:42.960Z,13.05
2019-04-19T00:41:33.811Z,13.00
2019-04-19T00:44:06.857Z,12.97
2019-04-19T00:46:44.932Z,12.94
2019-04-19T00:49:10.162Z,12.89
2019-04-19T00:51:46.980Z,12.87
2019-04-19T00:54:13.053Z,12.84
2019-04-19T00:56:44.270Z,12.79
2019-04-19T00:59:08.166Z,12.77
2019-04-19T01:01:35.641Z,12.74
2019-04-19T01:04:14.588Z,12.72
2019-04-19T01:06:44.044Z,12.69
2019-04-19T01:09:27.882Z,12.67
2019-04-19T01:11:55.686Z,12.66
2019-04-19T01:14:25.359Z,12.61
2019-04-19T01:17:03.065Z,12.58
2019-04-19T01:19:18.705Z,12.56
2019-04-19T01:21:49.075Z,12.53
2019-04-19T01:24:29.179Z,12.49
2019-04-19T01:26:53.970Z,12.46
2019-04-19T01:29:23.420Z,12.42
2019-04-19T01:32:00.408Z,12.39
2019-04-19T01:34:26.234Z,12.36
2019-04-19T01:36:57.056Z,12.31
2019-04-19T01:39:39.968Z,12.29
2019-04-19T01:42:11.813Z,12.26
2019-04-19T01:44:50.027Z,12.25
2019-04-19T01:47:36.267Z,12.23
2019-04-19T01:50:13.233Z,12.21
2019-04-19T01:52:59.687Z,12.19
2019-04-19T01:55:14.979Z,12.15
2019-04-19T01:57:38.799Z,12.12
2019-04-19T02:00:12.965Z,12.10
2019-04-19T02:02:47.098Z,12.09
2019-04-19T02:05:17.524Z,12.10
2019-04-19T02:07:44.520Z,12.07
2019-04-19T02:10:58.726Z,12.05
2019-04-19T02:13:28.840Z,12.02
2019-04-19T02:15:54.802Z,11.99
2019-04-19T02:18:27.658Z,11.93
2019-04-19T02:20:56.037Z,11.90
2019-04-19T02:23:26.060Z,11.88
2019-04-19T02:26:03.108Z,11.84
2019-04-19T02:28:32.804Z,11.84
2019-04-19T02:31:18.548Z,11.81
2019-04-19T02:34:03.379Z,11.75
2019-04-19T02:36:41.539Z,11.68
2019-04-19T02:39:05.070Z,11.68
2019-04-19T02:44:10.196Z,11.68
2019-04-19T02:49:09.473Z,11.67
2019-04-19T02:51:39.411Z,11.64
2019-04-19T02:54:11.863Z,11.62
2019-04-19T02:59:32.118Z,11.52
2019-04-19T03:02:04.721Z,11.50
2019-04-19T03:06:36.902Z,11.45
2019-04-19T03:09:01.009Z,11.41
2019-04-19T03:11:50.317Z,11.38
2019-04-19T03:14:16.438Z,11.36
2019-04-19T03:16:53.846Z,11.30
2019-04-19T03:19:18.283Z,11.24
2019-04-19T03:21:53.376Z,11.16
2019-04-19T03:24:22.599Z,11.16
2019-04-19T03:26:55.452Z,11.13
2019-04-19T03:29:20.910Z,11.11
2019-04-19T03:34:54.759Z,11.02
2019-04-19T03:37:00.575Z,11.00
2019-04-19T03:39:40.618Z,10.97
2019-04-19T03:42:17.944Z,10.94
2019-04-19T03:44:51.094Z,10.91
2019-04-19T03:47:21.394Z,10.90
2019-04-19T03:49:52.385Z,10.90
2019-04-19T03:52:25.922Z,10.88
2019-04-19T03:54:55.695Z,10.85
2019-04-19T03:57:24.904Z,10.81
2019-04-19T03:59:41.445Z,10.77
2019-04-19T04:02:15.339Z,10.74
2019-04-19T04:04:48.422Z,10.70
2019-04-19T04:07:20.164Z,10.69
2019-04-19T04:09:49.694Z,10.66
2019-04-19T04:12:32.238Z,10.65
2019-04-19T04:15:07.266Z,10.60
2019-04-19T04:17:28.932Z,10.62
2019-04-19T04:19:58.809Z,10.69
2019-04-19T04:22:33.527Z,10.76
2019-04-19T04:25:09.439Z,10.80
2019-04-19T04:27:47.551Z,10.85
2019-04-19T04:30:15.750Z,10.84
2019-04-19T04:32:49.279Z,10.82
2019-04-19T04:35:25.151Z,10.79
2019-04-19T04:37:51.454Z,10.76
2019-04-19T04:40:10.635Z,10.76
2019-04-19T04:42:52.285Z,10.76
2019-04-19T04:45:33.098Z,10.72
2019-04-19T04:48:03.583Z,10.69
2019-04-19T04:51:00.446Z,10.66
2019-04-19T04:53:19.429Z,10.66
2019-04-19T04:55:57.943Z,10.62
2019-04-19T04:58:26.896Z,10.58
2019-04-19T05:00:58.937Z,10.63
2019-04-19T05:03:42.937Z,10.64
2019-04-19T05:06:19.119Z,10.69
2019-04-19T05:08:48.962Z,10.70
2019-04-19T05:11:16.046Z,10.72
2019-04-19T05:13:50.046Z,10.79
2019-04-19T05:16:27.675Z,10.83
2019-04-19T05:18:52.354Z,10.88
2019-04-19T05:21:24.264Z,10.91
2019-04-19T05:23:59.679Z,10.93
2019-04-19T05:26:37.417Z,10.97
2019-04-19T05:28:50.099Z,11.07
2019-04-19T05:31:11.223Z,11.16
2019-04-19T05:33:52.981Z,11.25
2019-04-19T05:36:29.479Z,11.31
2019-04-19T05:39:08.940Z,11.40
2019-04-19T05:41:38.449Z,11.40
2019-04-19T05:46:53.107Z,11.54
2019-04-19T05:49:20.859Z,11.66
2019-04-19T05:52:06.191Z,11.76
2019-04-19T05:54:11.862Z,11.86
2019-04-19T05:56:45.949Z,11.95
2019-04-19T05:59:21.444Z,12.05
2019-04-19T06:01:59.282Z,12.11
2019-04-19T06:04:32.324Z,12.16
2019-04-19T06:07:01.715Z,12.24
2019-04-19T06:09:15.991Z,12.34
2019-04-19T06:11:46.683Z,12.46
2019-04-19T06:14:43.363Z,12.57
2019-04-19T06:17:24.974Z,12.67
2019-04-19T06:19:50.543Z,12.78
2019-04-19T06:22:31.715Z,12.90
2019-04-19T06:24:56.939Z,13.01
2019-04-19T06:27:43.346Z,13.15
2019-04-19T06:30:11.854Z,13.24
2019-04-19T06:32:40.393Z,13.25
2019-04-19T06:35:04.185Z,13.33
2019-04-19T06:37:22.189Z,13.40
2019-04-19T06:39:53.655Z,13.49
2019-04-19T06:42:31.914Z,13.55
2019-04-19T06:45:12.309Z,13.54
2019-04-19T06:47:30.307Z,13.53
2019-04-19T06:49:55.735Z,13.56
2019-04-19T06:52:29.431Z,13.67
2019-04-19T06:55:00.003Z,13.91
2019-04-19T06:57:35.783Z,14.30
2019-04-19T07:00:13.136Z,14.57
2019-04-19T07:02:35.132Z,14.72
2019-04-19T07:05:21.347Z,14.96
2019-04-19T07:08:06.842Z,15.26
2019-04-19T07:10:39.074Z,15.54
2019-04-19T07:13:03.065Z,15.67
2019-04-19T07:15:58.112Z,15.69
2019-04-19T07:17:58.570Z,15.77
2019-04-19T07:20:30.220Z,15.86
2019-04-19T07:23:02.774Z,15.90
2019-04-19T07:25:42.409Z,15.91
2019-04-19T07:28:01.536Z,15.85
2019-04-19T07:30:22.556Z,15.90
2019-04-19T07:33:00.407Z,16.01
2019-04-19T07:35:48.019Z,16.17
2019-04-19T07:38:25.193Z,16.22
2019-04-19T07:41:04.780Z,16.18
2019-04-19T07:43:10.072Z,16.11
2019-04-19T07:46:02.819Z,16.19
2019-04-19T07:48:17.265Z,16.41
2019-04-19T07:50:54.666Z,16.73
2019-04-19T07:53:20.306Z,17.07
2019-04-19T07:55:58.899Z,17.53
2019-04-19T08:01:16.228Z,17.60
2019-04-19T08:04:00.220Z,17.63
2019-04-19T08:06:35.928Z,17.72
2019-04-19T08:11:26.010Z,17.96
2019-04-19T08:16:27.818Z,18.28
2019-04-19T08:28:45.115Z,18.91
2019-04-19T08:31:11.092Z,19.05
2019-04-19T08:33:42.836Z,19.26
2019-04-19T08:36:14.608Z,19.45
2019-04-19T08:39:04.222Z,19.54
2019-04-19T08:41:25.451Z,19.52
2019-04-19T08:44:05.110Z,19.58
2019-04-19T08:46:22.076Z,19.61
2019-04-19T08:48:57.627Z,19.70
2019-04-19T08:51:33.724Z,19.77
2019-04-19T08:54:23.999Z,19.94
2019-04-19T08:56:42.149Z,20.05
2019-04-19T08:59:27.963Z,20.26
2019-04-19T09:01:56.126Z,20.42
2019-04-19T09:04:23.686Z,20.46
2019-04-19T09:09:30.565Z,20.55
2019-04-19T09:12:02.627Z,20.73
2019-04-19T09:14:38.188Z,20.93
2019-04-19T09:17:08.289Z,21.06
2019-04-19T09:19:55.240Z,21.14
2019-04-19T09:22:05.537Z,21.12
2019-04-19T09:24:31.024Z,21.06
2019-04-19T09:27:05.040Z,21.03
2019-04-19T09:30:20.255Z,21.11
2019-04-19T09:32:02.768Z,21.20
2019-04-19T09:34:26.494Z,21.37
2019-04-19T09:37:06.710Z,21.53
2019-04-19T09:39:43.713Z,21.56
2019-04-19T09:42:02.207Z,21.68
2019-04-19T09:44:37.543Z,21.81
2019-04-19T09:46:59.609Z,21.93
2019-04-19T09:49:47.792Z,22.09
2019-04-19T09:52:26.393Z,22.14
2019-04-19T09:54:57.993Z,22.23
2019-04-19T09:57:27.912Z,22.45
2019-04-19T09:59:39.656Z,22.58
2019-04-19T10:04:41.986Z,22.87
2019-04-19T10:07:11.397Z,22.84
2019-04-19T10:09:40.882Z,22.95
2019-04-19T10:12:11.509Z,23.14
2019-04-19T10:14:41.748Z,23.30
2019-04-19T10:17:13.913Z,23.56
2019-04-19T10:19:44.534Z,23.80
2019-04-19T10:22:16.592Z,23.83
2019-04-19T10:24:48.112Z,23.64
2019-04-19T10:27:24.957Z,23.60
2019-04-19T10:29:55.591Z,23.81
2019-04-19T10:32:32.973Z,24.15
2019-04-19T10:35:02.523Z,24.55
2019-04-19T10:37:33.636Z,24.71
2019-04-19T10:40:05.885Z,24.75
2019-04-19T10:42:35.965Z,24.64
2019-04-19T10:45:07.976Z,24.39
2019-04-19T10:47:39.950Z,24.40
2019-04-19T10:50:20.534Z,24.64
2019-04-19T10:52:41.842Z,24.84
2019-04-19T10:55:11.361Z,24.87
2019-04-19T10:57:41.136Z,24.71
2019-04-19T11:00:11.320Z,24.74
2019-04-19T11:02:42.092Z,24.75
2019-04-19T11:05:12.345Z,24.64
2019-04-19T11:07:42.105Z,24.67
2019-04-19T11:10:13.679Z,24.82
2019-04-19T11:12:44.731Z,24.98
2019-04-19T11:15:15.925Z,25.22
2019-04-19T11:17:45.662Z,25.86
2019-04-19T11:20:26.312Z,25.86
2019-04-19T11:22:48.087Z,26.01
2019-04-19T11:25:17.828Z,26.18
2019-04-19T11:27:49.921Z,26.28
2019-04-19T11:30:24.230Z,26.29
2019-04-19T11:32:54.870Z,26.38
2019-04-19T11:35:27.623Z,26.55
2019-04-19T11:37:57.704Z,26.53
2019-04-19T11:40:27.470Z,26.36
2019-04-19T11:42:57.349Z,26.23
2019-04-19T11:45:28.010Z,26.12
2019-04-19T11:47:58.818Z,26.07
2019-04-19T11:50:29.520Z,25.89
2019-04-19T11:53:16.406Z,25.87
2019-04-19T11:55:54.155Z,25.96
2019-04-19T11:58:24.263Z,25.95
2019-04-19T12:01:12.188Z,25.78
2019-04-19T12:03:43.564Z,25.73
2019-04-19T12:06:14.208Z,25.78
2019-04-19T12:08:44.566Z,25.86
2019-04-19T12:11:17.722Z,25.92
2019-04-19T12:13:48.131Z,26.08
2019-04-19T12:16:19.141Z,25.80
2019-04-19T12:18:48.912Z,25.59
2019-04-19T12:21:18.985Z,25.59
2019-04-19T12:23:48.745Z,25.68
2019-04-19T12:26:19.875Z,25.85
2019-04-19T12:28:49.672Z,25.98
2019-04-19T12:31:19.179Z,26.00
2019-04-19T12:33:49.170Z,26.07
2019-04-19T12:36:19.255Z,26.16
2019-04-19T12:38:50.369Z,26.24
2019-04-19T12:41:19.873Z,26.14
2019-04-19T12:43:49.933Z,26.25
2019-04-19T12:46:21.242Z,26.15
2019-04-19T12:48:50.809Z,25.84
2019-04-19T12:51:21.743Z,25.71
2019-04-19T12:53:52.552Z,25.78
2019-04-19T12:56:22.380Z,25.68
2019-04-19T12:58:53.866Z,25.68
2019-04-19T13:01:26.073Z,25.80
2019-04-19T13:03:57.196Z,25.65
2019-04-19T13:06:27.940Z,25.53
2019-04-19T13:08:59.118Z,25.65
2019-04-19T13:11:29.353Z,25.82
2019-04-19T13:13:59.746Z,26.00
2019-04-19T13:16:30.410Z,26.19
2019-04-19T13:19:00.506Z,26.50
2019-04-19T13:21:29.919Z,26.14
2019-04-19T13:24:00.321Z,25.97
2019-04-19T13:26:29.762Z,25.89
2019-04-19T13:28:59.704Z,25.98
2019-04-19T13:31:29.288Z,26.14
2019-04-19T13:33:58.670Z,26.13
2019-04-19T13:36:45.102Z,26.21
2019-04-19T13:39:25.809Z,26.34
2019-04-19T13:41:59.273Z,26.54
2019-04-19T13:44:29.200Z,26.53
2019-04-19T13:46:58.816Z,26.12
2019-04-19T13:49:28.647Z,25.82
2019-04-19T13:51:58.754Z,25.80
2019-04-19T13:54:28.193Z,25.97
2019-04-19T13:56:58.019Z,25.95
2019-04-19T13:59:40.018Z,25.92
2019-04-19T14:01:59.004Z,25.89
2019-04-19T14:04:29.214Z,26.01
2019-04-19T14:06:58.674Z,26.16
2019-04-19T14:09:29.287Z,26.37
2019-04-19T14:11:59.032Z,26.47
2019-04-19T14:14:28.724Z,26.41
2019-04-19T14:16:58.342Z,26.27
2019-04-19T14:19:29.049Z,26.24
2019-04-19T14:21:58.715Z,26.21
2019-04-19T14:24:29.209Z,25.99
2019-04-19T14:26:59.551Z,26.00
2019-04-19T14:29:31.187Z,26.05
2019-04-19T14:32:01.123Z,25.84
2019-04-19T14:34:31.112Z,25.78
2019-04-19T14:37:00.793Z,25.74
2019-04-19T14:39:30.834Z,25.75
2019-04-19T14:42:01.383Z,25.72
2019-04-19T14:44:31.538Z,25.72
2019-04-19T14:47:03.089Z,25.59
2019-04-19T14:49:34.567Z,25.57
2019-04-19T14:52:05.654Z,25.56
2019-04-19T14:54:36.111Z,25.48
2019-04-19T14:57:07.177Z,25.65
2019-04-19T14:59:37.170Z,25.69
2019-04-19T15:02:24.895Z,25.66
2019-04-19T15:05:01.752Z,25.46
2019-04-19T15:07:32.363Z,25.31
2019-04-19T15:10:03.740Z,25.30
2019-04-19T15:12:34.399Z,25.38
2019-04-19T15:15:06.318Z,25.51
2019-04-19T15:17:36.260Z,25.49
2019-04-19T15:20:08.101Z,25.55
2019-04-19T15:22:38.128Z,25.64
2019-04-19T15:25:09.219Z,25.64
2019-04-19T15:27:39.136Z,25.52
2019-04-19T15:30:12.985Z,25.37
2019-04-19T15:32:44.370Z,25.22
2019-04-19T15:35:14.267Z,25.17
2019-04-19T15:37:43.942Z,25.00
2019-04-19T15:40:16.223Z,24.89
2019-04-19T15:42:47.517Z,24.86
2019-04-19T15:45:19.013Z,24.88
2019-04-19T15:47:48.691Z,24.81
2019-04-19T15:50:18.374Z,24.77
2019-04-19T15:52:48.186Z,24.79
2019-04-19T15:55:17.960Z,24.76
2019-04-19T15:57:48.650Z,24.77
2019-04-19T16:00:25.778Z,24.81
2019-04-19T16:03:05.568Z,24.86
2019-04-19T16:05:38.095Z,24.85
2019-04-19T16:08:24.733Z,24.85
2019-04-19T16:11:02.616Z,24.83
2019-04-19T16:13:34.080Z,24.83
2019-04-19T16:16:03.495Z,24.68
2019-04-19T16:18:34.066Z,24.47
2019-04-19T16:21:03.486Z,24.39
2019-04-19T16:23:34.200Z,24.35
2019-04-19T16:26:05.249Z,24.31
2019-04-19T16:28:37.363Z,24.21
2019-04-19T16:31:08.340Z,24.15
2019-04-19T16:33:38.431Z,24.13
2019-04-19T16:36:18.935Z,24.13
2019-04-19T16:38:50.694Z,24.11
2019-04-19T16:41:20.929Z,23.98
2019-04-19T16:43:51.554Z,23.92
2019-04-19T16:46:25.434Z,23.92
2019-04-19T16:48:52.746Z,23.93
2019-04-19T16:51:34.605Z,23.91
2019-04-19T16:53:54.101Z,23.91
2019-04-19T16:56:23.769Z,23.92
2019-04-19T16:58:53.259Z,23.96
2019-04-19T17:01:23.150Z,23.95
2019-04-19T17:03:55.382Z,23.90
2019-04-19T17:06:25.146Z,23.89
2019-04-19T17:08:54.796Z,23.87
2019-04-19T17:11:26.661Z,23.81
2019-04-19T17:13:56.593Z,23.70
2019-04-19T17:16:27.746Z,23.60
2019-04-19T17:19:10.870Z,23.54
2019-04-19T17:21:51.756Z,23.47
2019-04-19T17:24:11.787Z,23.37
2019-04-19T17:26:42.725Z,23.30
2019-04-19T17:29:12.883Z,23.26
2019-04-19T17:31:42.506Z,23.18
2019-04-19T17:34:12.167Z,23.18
2019-04-19T17:36:42.530Z,23.11
2019-04-19T17:39:12.918Z,23.04
2019-04-19T17:41:42.994Z,22.87
2019-04-19T17:44:13.523Z,22.87
2019-04-19T17:46:44.605Z,22.82
2019-04-19T17:49:14.831Z,22.67
2019-04-19T17:51:57.736Z,22.58
2019-04-19T17:54:30.837Z,22.49
2019-04-19T17:56:49.049Z,22.41
2019-04-19T17:59:20.896Z,22.32
2019-04-19T18:01:50.555Z,22.27
2019-04-19T18:04:21.922Z,22.21
2019-04-19T18:06:58.074Z,22.12
2019-04-19T18:09:24.551Z,22.04
2019-04-19T18:11:55.712Z,22.01
2019-04-19T18:14:25.581Z,21.95
2019-04-19T18:16:56.441Z,21.88
2019-04-19T18:19:31.529Z,21.81
2019-04-19T18:22:09.727Z,21.73
2019-04-19T18:24:32.418Z,21.62
2019-04-19T18:27:06.360Z,21.54
2019-04-19T18:29:32.373Z,21.48
2019-04-19T18:32:09.982Z,21.45
2019-04-19T18:34:43.218Z,21.37
2019-04-19T18:37:16.851Z,21.35
2019-04-19T18:39:44.574Z,21.33
2019-04-19T18:42:15.697Z,21.27
2019-04-19T18:44:49.956Z,21.22
2019-04-19T18:47:16.729Z,21.17
2019-04-19T18:49:47.725Z,21.09
2019-04-19T18:52:35.876Z,21.04
2019-04-19T18:54:57.778Z,20.97
2019-04-19T18:57:20.225Z,20.92
2019-04-19T18:59:56.001Z,20.87
2019-04-19T19:02:23.277Z,20.83
2019-04-19T19:05:00.284Z,20.76
2019-04-19T19:07:28.020Z,20.74
2019-04-19T19:09:58.331Z,20.74
2019-04-19T19:12:28.533Z,20.74
2019-04-19T19:15:02.485Z,20.73
2019-04-19T19:17:30.459Z,20.63
2019-04-19T19:20:06.595Z,20.49
2019-04-19T19:22:45.325Z,20.36
2019-04-19T19:25:19.706Z,20.24
2019-04-19T19:27:35.656Z,20.13
2019-04-19T19:30:07.183Z,20.04
2019-04-19T19:32:42.687Z,19.97
2019-04-19T19:35:16.232Z,19.90
2019-04-19T19:37:43.102Z,19.85
2019-04-19T19:40:24.852Z,19.81
2019-04-19T19:43:08.808Z,19.74
2019-04-19T19:45:31.315Z,19.65
2019-04-19T19:48:10.080Z,19.57
2019-04-19T19:50:44.738Z,19.48
2019-04-19T19:53:16.512Z,19.38
2019-04-19T19:55:44.447Z,19.30
2019-04-19T19:58:03.527Z,19.22
2019-04-19T20:00:40.859Z,19.15
2019-04-19T20:03:11.633Z,19.08
2019-04-19T20:05:33.073Z,19.01
2019-04-19T20:08:01.782Z,18.94
2019-04-19T20:10:34.672Z,18.85
2019-04-19T20:13:08.674Z,18.77
2019-04-19T20:15:37.809Z,18.69
2019-04-19T20:18:06.407Z,18.62
2019-04-19T20:20:42.247Z,18.55
2019-04-19T20:23:20.655Z,18.51
2019-04-19T20:25:50.269Z,18.41
2019-04-19T20:28:20.288Z,18.32
2019-04-19T20:30:48.357Z,18.25
2019-04-19T20:33:16.742Z,18.21
2019-04-19T20:35:52.264Z,18.15
2019-04-19T20:38:21.861Z,18.07
2019-04-19T20:40:54.561Z,18.00
2019-04-19T20:43:35.082Z,17.97
2019-04-19T20:45:55.697Z,17.92
2019-04-19T20:48:26.818Z,17.86
2019-04-19T20:51:06.382Z,17.80
2019-04-19T20:53:35.830Z,17.74
2019-04-19T20:58:44.118Z,17.64
2019-04-19T21:01:05.400Z,17.56
2019-04-19T21:03:38.188Z,17.57
2019-04-19T21:06:06.263Z,17.68
2019-04-19T21:08:42.351Z,17.79
2019-04-19T21:11:11.107Z,17.85
2019-04-19T21:13:45.774Z,17.83
2019-04-19T21:16:12.650Z,17.85
2019-04-19T21:18:43.805Z,17.83
2019-04-19T21:21:16.515Z,17.81
2019-04-19T21:23:52.121Z,17.75
2019-04-19T21:26:20.591Z,17.68
2019-04-19T21:28:52.320Z,17.65
2019-04-19T21:31:23.823Z,17.64
2019-04-19T21:33:55.712Z,17.62
2019-04-19T21:36:27.788Z,17.58
2019-04-19T21:39:00.102Z,17.55
2019-04-19T21:41:33.195Z,17.52
2019-04-19T21:43:58.750Z,17.48
2019-04-19T21:46:31.757Z,17.45
2019-04-19T21:49:01.754Z,17.42
2019-04-19T21:51:34.383Z,17.39
2019-04-19T21:54:02.876Z,17.34
2019-04-19T21:56:33.537Z,17.28
2019-04-19T21:59:04.849Z,17.22
2019-04-19T22:01:39.089Z,17.15
2019-04-19T22:04:10.161Z,17.08
2019-04-19T22:06:39.094Z,17.02
2019-04-19T22:09:16.052Z,16.99
2019-04-19T22:11:42.638Z,16.94
2019-04-19T22:14:13.058Z,16.90
2019-04-19T22:16:45.229Z,17.04
2019-04-19T22:19:22.412Z,17.22
2019-04-19T22:21:49.985Z,17.39
2019-04-19T22:24:26.063Z,17.57
2019-04-19T22:26:55.793Z,17.64
2019-04-19T22:29:23.868Z,17.62
2019-04-19T22:31:56.445Z,17.54
2019-04-19T22:34:26.341Z,17.44
2019-04-19T22:36:58.773Z,17.31
2019-04-19T22:39:27.702Z,17.16
2019-04-19T22:41:57.193Z,17.05
2019-04-19T22:44:28.530Z,16.91
2019-04-19T22:47:01.608Z,16.83
2019-04-19T22:49:34.076Z,16.76
2019-04-19T22:52:02.752Z,16.70
2019-04-19T22:54:32.833Z,16.67
2019-04-19T22:57:10.970Z,16.64
2019-04-19T22:59:34.163Z,16.59
2019-04-19T23:02:12.363Z,16.60
2019-04-19T23:04:43.748Z,16.61
2019-04-19T23:07:16.586Z,16.53
2019-04-19T23:09:46.530Z,16.43
2019-04-19T23:12:18.412Z,16.35
2019-04-19T23:14:52.627Z,16.28
2019-04-19T23:17:31.874Z,16.23
2019-04-19T23:19:55.413Z,16.13
2019-04-19T23:22:31.182Z,15.97
2019-04-19T23:25:03.176Z,15.81
2019-04-19T23:27:40.882Z,15.72
2019-04-19T23:30:21.715Z,15.70
2019-04-19T23:32:50.329Z,15.66
2019-04-19T23:35:26.912Z,15.66
2019-04-19T23:37:51.636Z,15.74
2019-04-19T23:40:28.334Z,15.83
2019-04-19T23:42:54.779Z,15.90
2019-04-19T23:45:26.500Z,15.92
2019-04-19T23:47:56.144Z,15.94
2019-04-19T23:50:30.968Z,15.82
2019-04-19T23:52:59.518Z,15.69
2019-04-19T23:55:28.707Z,15.47
2019-04-19T23:57:59.890Z,15.28
